sensor_id;sensor_type;location;lat;lon;timestamp;P1;durP1;ratioP1;P2;durP2;ratioP2
56752;SDS011;42627;42.646;23.642;2022-09-30T00:01:55;6.30;;;2.70;;
56752;SDS011;42627;42.646;23.642;2022-09-30T00:03:56;6.55;;;2.67;;
56752;SDS011;42627;42.646;23.642;2022-09-30T00:05:58;8.48;;;3.55;;
56752;SDS011;42627;42.646;23.642;2022-09-30T00:08:05;6.45;;;2.90;;
56752;SDS011;42627;42.646;23.642;2022-09-30T00:10:06;5.72;;;2.95;;
56752;SDS011;42627;42.646;23.642;2022-09-30T00:12:07;9.05;;;3.10;;
56752;SDS011;42627;42.646;23.642;2022-09-30T00:14:11;6.72;;;2.97;;
56752;SDS011;42627;42.646;23.642;2022-09-30T00:16:15;7.30;;;2.88;;
56752;SDS011;42627;42.646;23.642;2022-09-30T00:18:17;8.65;;;3.10;;
56752;SDS011;42627;42.646;23.642;2022-09-30T00:20:17;7.82;;;2.75;;
56752;SDS011;42627;42.646;23.642;2022-09-30T00:22:30;7.32;;;3.92;;
56752;SDS011;42627;42.646;23.642;2022-09-30T00:24:31;9.57;;;3.63;;
56752;SDS011;42627;42.646;23.642;2022-09-30T00:26:32;10.75;;;3.85;;
56752;SDS011;42627;42.646;23.642;2022-09-30T00:28:34;9.23;;;4.10;;
56752;SDS011;42627;42.646;23.642;2022-09-30T00:30:35;8.60;;;3.60;;
56752;SDS011;42627;42.646;23.642;2022-09-30T00:32:44;10.73;;;3.50;;
56752;SDS011;42627;42.646;23.642;2022-09-30T00:37:16;7.78;;;2.80;;
56752;SDS011;42627;42.646;23.642;2022-09-30T00:39:24;8.23;;;3.95;;
56752;SDS011;42627;42.646;23.642;2022-09-30T00:41:27;10.15;;;3.17;;
56752;SDS011;42627;42.646;23.642;2022-09-30T00:45:52;7.65;;;3.30;;
56752;SDS011;42627;42.646;23.642;2022-09-30T00:48:17;8.10;;;3.58;;
56752;SDS011;42627;42.646;23.642;2022-09-30T00:52:31;6.80;;;3.67;;
56752;SDS011;42627;42.646;23.642;2022-09-30T00:54:32;9.95;;;3.90;;
56752;SDS011;42627;42.646;23.642;2022-09-30T00:56:36;7.45;;;3.30;;
56752;SDS011;42627;42.646;23.642;2022-09-30T00:58:46;9.75;;;3.88;;
56752;SDS011;42627;42.646;23.642;2022-09-30T01:00:51;8.98;;;3.65;;
56752;SDS011;42627;42.646;23.642;2022-09-30T01:07:40;11.30;;;3.53;;
56752;SDS011;42627;42.646;23.642;2022-09-30T01:09:41;10.77;;;4.18;;
56752;SDS011;42627;42.646;23.642;2022-09-30T01:11:42;10.13;;;3.42;;
56752;SDS011;42627;42.646;23.642;2022-09-30T01:13:43;10.68;;;3.78;;
56752;SDS011;42627;42.646;23.642;2022-09-30T01:18:16;8.13;;;3.78;;
56752;SDS011;42627;42.646;23.642;2022-09-30T01:20:39;12.15;;;5.10;;
56752;SDS011;42627;42.646;23.642;2022-09-30T01:38:41;8.98;;;3.42;;
56752;SDS011;42627;42.646;23.642;2022-09-30T01:40:57;6.20;;;2.47;;
56752;SDS011;42627;42.646;23.642;2022-09-30T01:43:07;8.75;;;3.35;;
56752;SDS011;42627;42.646;23.642;2022-09-30T01:45:18;7.97;;;3.33;;
56752;SDS011;42627;42.646;23.642;2022-09-30T01:47:43;6.43;;;2.90;;
56752;SDS011;42627;42.646;23.642;2022-09-30T01:49:49;5.47;;;2.65;;
56752;SDS011;42627;42.646;23.642;2022-09-30T01:52:03;6.78;;;3.13;;
56752;SDS011;42627;42.646;23.642;2022-09-30T01:54:16;8.10;;;2.85;;
56752;SDS011;42627;42.646;23.642;2022-09-30T01:56:26;6.53;;;3.15;;
56752;SDS011;42627;42.646;23.642;2022-09-30T01:58:34;8.43;;;3.63;;
56752;SDS011;42627;42.646;23.642;2022-09-30T02:00:42;10.55;;;3.47;;
56752;SDS011;42627;42.646;23.642;2022-09-30T02:08:25;8.70;;;3.20;;
56752;SDS011;42627;42.646;23.642;2022-09-30T02:11:11;8.20;;;3.60;;
56752;SDS011;42627;42.646;23.642;2022-09-30T02:13:01;5.30;;;2.40;;
56752;SDS011;42627;42.646;23.642;2022-09-30T02:15:26;9.18;;;3.50;;
56752;SDS011;42627;42.646;23.642;2022-09-30T02:17:50;7.32;;;2.88;;
56752;SDS011;42627;42.646;23.642;2022-09-30T02:20:02;6.28;;;2.72;;
56752;SDS011;42627;42.646;23.642;2022-09-30T02:22:09;5.05;;;2.75;;
56752;SDS011;42627;42.646;23.642;2022-09-30T02:24:12;8.32;;;3.30;;
56752;SDS011;42627;42.646;23.642;2022-09-30T02:26:19;6.78;;;3.00;;
56752;SDS011;42627;42.646;23.642;2022-09-30T02:28:26;6.53;;;2.92;;
56752;SDS011;42627;42.646;23.642;2022-09-30T02:30:30;8.15;;;2.53;;
56752;SDS011;42627;42.646;23.642;2022-09-30T02:32:46;6.85;;;2.72;;
56752;SDS011;42627;42.646;23.642;2022-09-30T02:37:33;7.25;;;3.08;;
56752;SDS011;42627;42.646;23.642;2022-09-30T02:39:39;6.10;;;2.53;;
56752;SDS011;42627;42.646;23.642;2022-09-30T02:41:46;6.55;;;2.58;;
56752;SDS011;42627;42.646;23.642;2022-09-30T02:43:55;5.75;;;2.42;;
56752;SDS011;42627;42.646;23.642;2022-09-30T02:50:05;6.93;;;3.40;;
56752;SDS011;42627;42.646;23.642;2022-09-30T02:55:00;5.95;;;2.75;;
56752;SDS011;42627;42.646;23.642;2022-09-30T02:59:42;6.35;;;2.53;;
56752;SDS011;42627;42.646;23.642;2022-09-30T03:02:00;5.82;;;2.38;;
56752;SDS011;42627;42.646;23.642;2022-09-30T03:04:15;5.05;;;2.33;;
56752;SDS011;42627;42.646;23.642;2022-09-30T03:06:48;6.13;;;2.37;;
56752;SDS011;42627;42.646;23.642;2022-09-30T03:08:50;5.72;;;2.45;;
56752;SDS011;42627;42.646;23.642;2022-09-30T03:10:52;7.32;;;2.17;;
56752;SDS011;42627;42.646;23.642;2022-09-30T03:15:40;5.15;;;2.17;;
56752;SDS011;42627;42.646;23.642;2022-09-30T03:27:55;6.88;;;2.38;;
56752;SDS011;42627;42.646;23.642;2022-09-30T03:29:37;4.93;;;2.08;;
56752;SDS011;42627;42.646;23.642;2022-09-30T03:37:13;6.03;;;1.77;;
56752;SDS011;42627;42.646;23.642;2022-09-30T03:39:27;5.20;;;2.03;;
56752;SDS011;42627;42.646;23.642;2022-09-30T03:41:53;4.93;;;2.10;;
56752;SDS011;42627;42.646;23.642;2022-09-30T03:44:11;5.03;;;2.08;;
56752;SDS011;42627;42.646;23.642;2022-09-30T03:46:16;5.25;;;1.92;;
56752;SDS011;42627;42.646;23.642;2022-09-30T03:48:20;5.45;;;2.20;;
56752;SDS011;42627;42.646;23.642;2022-09-30T03:50:36;4.25;;;1.77;;
56752;SDS011;42627;42.646;23.642;2022-09-30T03:52:38;4.88;;;1.67;;
56752;SDS011;42627;42.646;23.642;2022-09-30T03:54:50;5.20;;;2.25;;
56752;SDS011;42627;42.646;23.642;2022-09-30T03:56:53;4.68;;;1.92;;
56752;SDS011;42627;42.646;23.642;2022-09-30T03:58:53;4.88;;;1.88;;
56752;SDS011;42627;42.646;23.642;2022-09-30T04:06:00;6.07;;;2.13;;
56752;SDS011;42627;42.646;23.642;2022-09-30T04:08:02;5.70;;;2.05;;
56752;SDS011;42627;42.646;23.642;2022-09-30T04:10:03;5.88;;;2.30;;
56752;SDS011;42627;42.646;23.642;2022-09-30T04:12:04;5.15;;;2.15;;
56752;SDS011;42627;42.646;23.642;2022-09-30T04:14:06;4.57;;;2.20;;
56752;SDS011;42627;42.646;23.642;2022-09-30T04:16:07;5.13;;;2.00;;
56752;SDS011;42627;42.646;23.642;2022-09-30T04:18:07;6.32;;;2.10;;
56752;SDS011;42627;42.646;23.642;2022-09-30T04:20:08;5.53;;;2.20;;
56752;SDS011;42627;42.646;23.642;2022-09-30T04:22:09;4.35;;;1.83;;
56752;SDS011;42627;42.646;23.642;2022-09-30T04:24:09;4.18;;;1.55;;
56752;SDS011;42627;42.646;23.642;2022-09-30T04:26:11;4.30;;;2.05;;
56752;SDS011;42627;42.646;23.642;2022-09-30T04:28:13;4.40;;;2.05;;
56752;SDS011;42627;42.646;23.642;2022-09-30T04:35:08;5.97;;;2.50;;
56752;SDS011;42627;42.646;23.642;2022-09-30T04:37:09;4.80;;;2.03;;
56752;SDS011;42627;42.646;23.642;2022-09-30T04:39:10;4.97;;;2.35;;
56752;SDS011;42627;42.646;23.642;2022-09-30T04:41:12;5.68;;;2.28;;
56752;SDS011;42627;42.646;23.642;2022-09-30T04:43:17;4.15;;;1.98;;
56752;SDS011;42627;42.646;23.642;2022-09-30T04:45:18;4.15;;;1.52;;
56752;SDS011;42627;42.646;23.642;2022-09-30T04:47:20;6.28;;;2.70;;
56752;SDS011;42627;42.646;23.642;2022-09-30T04:49:29;4.43;;;1.98;;
56752;SDS011;42627;42.646;23.642;2022-09-30T04:51:30;5.32;;;2.10;;
56752;SDS011;42627;42.646;23.642;2022-09-30T04:53:31;4.90;;;2.00;;
56752;SDS011;42627;42.646;23.642;2022-09-30T04:55:32;2.30;;;1.20;;
56752;SDS011;42627;42.646;23.642;2022-09-30T04:57:32;3.97;;;2.25;;
56752;SDS011;42627;42.646;23.642;2022-09-30T04:59:39;2.85;;;1.38;;
56752;SDS011;42627;42.646;23.642;2022-09-30T05:01:43;3.75;;;1.73;;
56752;SDS011;42627;42.646;23.642;2022-09-30T05:04:10;3.78;;;1.98;;
56752;SDS011;42627;42.646;23.642;2022-09-30T05:06:15;5.40;;;2.03;;
56752;SDS011;42627;42.646;23.642;2022-09-30T05:08:15;4.10;;;1.90;;
56752;SDS011;42627;42.646;23.642;2022-09-30T05:10:16;3.95;;;1.67;;
56752;SDS011;42627;42.646;23.642;2022-09-30T05:12:17;3.47;;;1.65;;
56752;SDS011;42627;42.646;23.642;2022-09-30T05:14:17;5.40;;;2.28;;
56752;SDS011;42627;42.646;23.642;2022-09-30T05:16:18;5.00;;;2.63;;
56752;SDS011;42627;42.646;23.642;2022-09-30T05:18:20;14.35;;;3.75;;
56752;SDS011;42627;42.646;23.642;2022-09-30T05:20:21;12.02;;;4.50;;
56752;SDS011;42627;42.646;23.642;2022-09-30T05:22:22;13.80;;;4.45;;
56752;SDS011;42627;42.646;23.642;2022-09-30T05:24:24;12.32;;;3.50;;
56752;SDS011;42627;42.646;23.642;2022-09-30T05:26:24;7.55;;;2.97;;
56752;SDS011;42627;42.646;23.642;2022-09-30T05:28:25;4.95;;;2.40;;
56752;SDS011;42627;42.646;23.642;2022-09-30T05:35:37;6.10;;;2.53;;
56752;SDS011;42627;42.646;23.642;2022-09-30T05:39:42;3.72;;;1.95;;
56752;SDS011;42627;42.646;23.642;2022-09-30T05:41:43;4.38;;;2.22;;
56752;SDS011;42627;42.646;23.642;2022-09-30T05:43:43;4.38;;;2.10;;
56752;SDS011;42627;42.646;23.642;2022-09-30T05:45:55;3.95;;;1.90;;
56752;SDS011;42627;42.646;23.642;2022-09-30T05:47:56;4.55;;;1.75;;
56752;SDS011;42627;42.646;23.642;2022-09-30T05:49:57;3.95;;;1.90;;
56752;SDS011;42627;42.646;23.642;2022-09-30T05:51:58;4.78;;;2.30;;
56752;SDS011;42627;42.646;23.642;2022-09-30T05:53:59;5.68;;;1.80;;
56752;SDS011;42627;42.646;23.642;2022-09-30T05:56:00;4.53;;;2.38;;
56752;SDS011;42627;42.646;23.642;2022-09-30T05:58:01;3.50;;;2.05;;
56752;SDS011;42627;42.646;23.642;2022-09-30T06:02:31;5.50;;;1.98;;
56752;SDS011;42627;42.646;23.642;2022-09-30T06:04:38;4.97;;;2.17;;
56752;SDS011;42627;42.646;23.642;2022-09-30T06:06:39;6.15;;;2.28;;
56752;SDS011;42627;42.646;23.642;2022-09-30T06:08:40;5.97;;;2.05;;
56752;SDS011;42627;42.646;23.642;2022-09-30T06:10:42;5.30;;;2.22;;
56752;SDS011;42627;42.646;23.642;2022-09-30T06:12:43;6.88;;;2.42;;
56752;SDS011;42627;42.646;23.642;2022-09-30T06:14:44;4.60;;;2.13;;
56752;SDS011;42627;42.646;23.642;2022-09-30T06:16:47;6.00;;;2.30;;
56752;SDS011;42627;42.646;23.642;2022-09-30T06:18:49;5.20;;;2.25;;
56752;SDS011;42627;42.646;23.642;2022-09-30T06:20:51;5.88;;;2.60;;
56752;SDS011;42627;42.646;23.642;2022-09-30T06:22:54;5.63;;;2.72;;
56752;SDS011;42627;42.646;23.642;2022-09-30T06:25:04;18.08;;;4.80;;
56752;SDS011;42627;42.646;23.642;2022-09-30T06:27:08;8.50;;;3.65;;
56752;SDS011;42627;42.646;23.642;2022-09-30T06:31:22;8.18;;;3.80;;
56752;SDS011;42627;42.646;23.642;2022-09-30T06:33:41;10.35;;;4.03;;
56752;SDS011;42627;42.646;23.642;2022-09-30T06:35:42;9.40;;;4.50;;
56752;SDS011;42627;42.646;23.642;2022-09-30T06:37:43;10.77;;;4.18;;
56752;SDS011;42627;42.646;23.642;2022-09-30T06:39:43;9.48;;;4.53;;
56752;SDS011;42627;42.646;23.642;2022-09-30T06:41:44;11.60;;;4.40;;
56752;SDS011;42627;42.646;23.642;2022-09-30T06:43:45;11.50;;;4.47;;
56752;SDS011;42627;42.646;23.642;2022-09-30T06:45:46;10.73;;;4.30;;
56752;SDS011;42627;42.646;23.642;2022-09-30T06:47:50;14.40;;;4.68;;
56752;SDS011;42627;42.646;23.642;2022-09-30T06:49:55;11.35;;;4.50;;
56752;SDS011;42627;42.646;23.642;2022-09-30T06:51:58;9.27;;;3.88;;
56752;SDS011;42627;42.646;23.642;2022-09-30T06:53:59;8.23;;;3.70;;
56752;SDS011;42627;42.646;23.642;2022-09-30T06:56:00;9.35;;;4.00;;
56752;SDS011;42627;42.646;23.642;2022-09-30T06:58:01;8.43;;;3.97;;
56752;SDS011;42627;42.646;23.642;2022-09-30T07:00:02;8.10;;;4.20;;
56752;SDS011;42627;42.646;23.642;2022-09-30T07:02:03;10.35;;;4.82;;
56752;SDS011;42627;42.646;23.642;2022-09-30T07:04:04;11.07;;;4.35;;
56752;SDS011;42627;42.646;23.642;2022-09-30T07:06:09;9.23;;;3.90;;
56752;SDS011;42627;42.646;23.642;2022-09-30T07:08:10;7.90;;;4.28;;
56752;SDS011;42627;42.646;23.642;2022-09-30T07:10:12;6.85;;;3.55;;
56752;SDS011;42627;42.646;23.642;2022-09-30T07:12:13;7.00;;;3.60;;
56752;SDS011;42627;42.646;23.642;2022-09-30T07:14:14;9.35;;;3.90;;
56752;SDS011;42627;42.646;23.642;2022-09-30T07:16:15;7.72;;;3.60;;
56752;SDS011;42627;42.646;23.642;2022-09-30T07:20:27;7.20;;;3.35;;
56752;SDS011;42627;42.646;23.642;2022-09-30T07:22:28;7.75;;;3.63;;
56752;SDS011;42627;42.646;23.642;2022-09-30T07:24:31;7.15;;;3.08;;
56752;SDS011;42627;42.646;23.642;2022-09-30T07:26:33;6.88;;;3.75;;
56752;SDS011;42627;42.646;23.642;2022-09-30T07:28:35;8.02;;;4.15;;
56752;SDS011;42627;42.646;23.642;2022-09-30T07:30:40;11.07;;;4.57;;
56752;SDS011;42627;42.646;23.642;2022-09-30T07:32:42;9.95;;;4.65;;
56752;SDS011;42627;42.646;23.642;2022-09-30T07:34:56;8.70;;;4.72;;
56752;SDS011;42627;42.646;23.642;2022-09-30T07:37:09;8.50;;;4.07;;
56752;SDS011;42627;42.646;23.642;2022-09-30T07:39:48;8.98;;;4.32;;
56752;SDS011;42627;42.646;23.642;2022-09-30T07:41:49;10.82;;;5.55;;
56752;SDS011;42627;42.646;23.642;2022-09-30T07:43:56;10.23;;;5.25;;
56752;SDS011;42627;42.646;23.642;2022-09-30T07:46:04;7.07;;;4.20;;
56752;SDS011;42627;42.646;23.642;2022-09-30T07:48:05;9.13;;;4.75;;
56752;SDS011;42627;42.646;23.642;2022-09-30T07:50:26;10.18;;;5.05;;
56752;SDS011;42627;42.646;23.642;2022-09-30T07:52:27;7.43;;;4.13;;
56752;SDS011;42627;42.646;23.642;2022-09-30T07:54:30;7.78;;;3.67;;
56752;SDS011;42627;42.646;23.642;2022-09-30T07:56:32;7.95;;;4.13;;
56752;SDS011;42627;42.646;23.642;2022-09-30T07:58:33;6.28;;;3.28;;
56752;SDS011;42627;42.646;23.642;2022-09-30T08:00:35;7.00;;;3.47;;
56752;SDS011;42627;42.646;23.642;2022-09-30T08:02:36;5.78;;;3.30;;
56752;SDS011;42627;42.646;23.642;2022-09-30T08:04:55;11.02;;;4.95;;
56752;SDS011;42627;42.646;23.642;2022-09-30T08:09:19;7.63;;;4.13;;
56752;SDS011;42627;42.646;23.642;2022-09-30T08:11:21;7.38;;;3.97;;
56752;SDS011;42627;42.646;23.642;2022-09-30T08:13:22;9.80;;;4.45;;
56752;SDS011;42627;42.646;23.642;2022-09-30T08:15:23;10.50;;;3.90;;
56752;SDS011;42627;42.646;23.642;2022-09-30T08:17:24;9.25;;;4.35;;
56752;SDS011;42627;42.646;23.642;2022-09-30T08:19:29;7.68;;;4.07;;
56752;SDS011;42627;42.646;23.642;2022-09-30T08:21:32;7.53;;;4.15;;
56752;SDS011;42627;42.646;23.642;2022-09-30T08:23:33;8.88;;;4.28;;
56752;SDS011;42627;42.646;23.642;2022-09-30T08:25:34;11.45;;;4.40;;
56752;SDS011;42627;42.646;23.642;2022-09-30T08:27:35;8.85;;;4.53;;
56752;SDS011;42627;42.646;23.642;2022-09-30T08:29:39;7.57;;;4.40;;
56752;SDS011;42627;42.646;23.642;2022-09-30T08:31:42;7.43;;;3.70;;
56752;SDS011;42627;42.646;23.642;2022-09-30T08:33:43;8.20;;;4.78;;
56752;SDS011;42627;42.646;23.642;2022-09-30T08:35:44;7.25;;;3.75;;
56752;SDS011;42627;42.646;23.642;2022-09-30T08:37:58;7.47;;;4.10;;
56752;SDS011;42627;42.646;23.642;2022-09-30T08:39:59;8.07;;;3.72;;
56752;SDS011;42627;42.646;23.642;2022-09-30T08:53:55;9.98;;;4.88;;
56752;SDS011;42627;42.646;23.642;2022-09-30T08:55:57;8.48;;;4.10;;
56752;SDS011;42627;42.646;23.642;2022-09-30T08:58:01;6.70;;;4.00;;
56752;SDS011;42627;42.646;23.642;2022-09-30T09:00:04;7.65;;;3.95;;
56752;SDS011;42627;42.646;23.642;2022-09-30T09:04:13;7.50;;;3.65;;
56752;SDS011;42627;42.646;23.642;2022-09-30T09:06:25;10.55;;;4.95;;
56752;SDS011;42627;42.646;23.642;2022-09-30T09:12:50;5.32;;;3.42;;
56752;SDS011;42627;42.646;23.642;2022-09-30T09:15:12;5.47;;;2.75;;
56752;SDS011;42627;42.646;23.642;2022-09-30T09:19:22;6.95;;;2.95;;
56752;SDS011;42627;42.646;23.642;2022-09-30T09:23:35;5.28;;;2.58;;
56752;SDS011;42627;42.646;23.642;2022-09-30T09:25:36;6.93;;;3.03;;
56752;SDS011;42627;42.646;23.642;2022-09-30T09:29:52;5.75;;;2.83;;
56752;SDS011;42627;42.646;23.642;2022-09-30T09:32:01;5.35;;;2.45;;
56752;SDS011;42627;42.646;23.642;2022-09-30T09:39:15;4.75;;;2.10;;
56752;SDS011;42627;42.646;23.642;2022-09-30T09:45:37;3.65;;;1.90;;
56752;SDS011;42627;42.646;23.642;2022-09-30T09:47:41;5.03;;;2.05;;
56752;SDS011;42627;42.646;23.642;2022-09-30T09:49:50;3.83;;;1.60;;
56752;SDS011;42627;42.646;23.642;2022-09-30T09:54:13;3.97;;;2.10;;
56752;SDS011;42627;42.646;23.642;2022-09-30T09:56:19;4.47;;;2.47;;
56752;SDS011;42627;42.646;23.642;2022-09-30T10:00:24;4.32;;;2.05;;
56752;SDS011;42627;42.646;23.642;2022-09-30T10:05:22;4.22;;;2.30;;
56752;SDS011;42627;42.646;23.642;2022-09-30T10:07:42;3.83;;;1.83;;
56752;SDS011;42627;42.646;23.642;2022-09-30T10:09:44;5.95;;;2.28;;
56752;SDS011;42627;42.646;23.642;2022-09-30T10:11:45;3.10;;;1.98;;
56752;SDS011;42627;42.646;23.642;2022-09-30T10:13:46;5.68;;;2.25;;
56752;SDS011;42627;42.646;23.642;2022-09-30T10:15:48;5.82;;;2.55;;
56752;SDS011;42627;42.646;23.642;2022-09-30T10:17:50;6.35;;;2.38;;
56752;SDS011;42627;42.646;23.642;2022-09-30T10:19:53;3.95;;;2.03;;
56752;SDS011;42627;42.646;23.642;2022-09-30T10:24:35;5.63;;;2.28;;
56752;SDS011;42627;42.646;23.642;2022-09-30T10:26:43;3.05;;;1.50;;
56752;SDS011;42627;42.646;23.642;2022-09-30T10:28:49;3.55;;;1.77;;
56752;SDS011;42627;42.646;23.642;2022-09-30T10:30:52;3.78;;;2.42;;
56752;SDS011;42627;42.646;23.642;2022-09-30T10:38:00;5.22;;;1.83;;
56752;SDS011;42627;42.646;23.642;2022-09-30T10:40:02;3.75;;;1.90;;
56752;SDS011;42627;42.646;23.642;2022-09-30T10:42:20;4.13;;;1.65;;
56752;SDS011;42627;42.646;23.642;2022-09-30T10:44:22;2.70;;;1.55;;
56752;SDS011;42627;42.646;23.642;2022-09-30T10:46:25;4.03;;;2.00;;
56752;SDS011;42627;42.646;23.642;2022-09-30T10:48:28;3.00;;;1.45;;
56752;SDS011;42627;42.646;23.642;2022-09-30T10:50:50;2.75;;;1.50;;
56752;SDS011;42627;42.646;23.642;2022-09-30T10:55:32;3.75;;;1.60;;
56752;SDS011;42627;42.646;23.642;2022-09-30T10:57:32;4.57;;;1.50;;
56752;SDS011;42627;42.646;23.642;2022-09-30T10:59:35;3.08;;;1.67;;
56752;SDS011;42627;42.646;23.642;2022-09-30T11:01:56;2.33;;;1.40;;
56752;SDS011;42627;42.646;23.642;2022-09-30T11:06:41;3.70;;;1.45;;
56752;SDS011;42627;42.646;23.642;2022-09-30T11:09:00;1.83;;;1.15;;
56752;SDS011;42627;42.646;23.642;2022-09-30T11:11:08;3.13;;;1.30;;
56752;SDS011;42627;42.646;23.642;2022-09-30T11:15:34;1.67;;;1.00;;
56752;SDS011;42627;42.646;23.642;2022-09-30T11:17:40;2.10;;;1.27;;
56752;SDS011;42627;42.646;23.642;2022-09-30T11:23:52;1.95;;;1.08;;
56752;SDS011;42627;42.646;23.642;2022-09-30T11:37:52;1.50;;;0.90;;
56752;SDS011;42627;42.646;23.642;2022-09-30T11:44:20;4.63;;;1.65;;
56752;SDS011;42627;42.646;23.642;2022-09-30T11:55:36;2.72;;;0.98;;
56752;SDS011;42627;42.646;23.642;2022-09-30T11:57:46;3.80;;;1.35;;
56752;SDS011;42627;42.646;23.642;2022-09-30T12:00:05;1.90;;;0.98;;
56752;SDS011;42627;42.646;23.642;2022-09-30T12:07:42;4.40;;;1.02;;
56752;SDS011;42627;42.646;23.642;2022-09-30T12:09:48;1.67;;;1.00;;
56752;SDS011;42627;42.646;23.642;2022-09-30T12:12:01;1.65;;;0.93;;
56752;SDS011;42627;42.646;23.642;2022-09-30T12:14:09;1.65;;;0.93;;
56752;SDS011;42627;42.646;23.642;2022-09-30T12:16:14;2.28;;;1.27;;
56752;SDS011;42627;42.646;23.642;2022-09-30T12:18:20;2.58;;;0.98;;
56752;SDS011;42627;42.646;23.642;2022-09-30T12:20:32;1.60;;;0.90;;
56752;SDS011;42627;42.646;23.642;2022-09-30T12:22:40;1.27;;;0.90;;
56752;SDS011;42627;42.646;23.642;2022-09-30T12:24:42;4.97;;;1.20;;
56752;SDS011;42627;42.646;23.642;2022-09-30T12:26:47;2.40;;;1.25;;
56752;SDS011;42627;42.646;23.642;2022-09-30T12:36:15;3.63;;;1.20;;
56752;SDS011;42627;42.646;23.642;2022-09-30T12:38:22;2.97;;;1.20;;
56752;SDS011;42627;42.646;23.642;2022-09-30T12:47:24;2.95;;;1.27;;
56752;SDS011;42627;42.646;23.642;2022-09-30T12:49:39;2.50;;;1.10;;
56752;SDS011;42627;42.646;23.642;2022-09-30T12:51:47;4.15;;;1.15;;
56752;SDS011;42627;42.646;23.642;2022-09-30T12:53:49;2.03;;;1.00;;
56752;SDS011;42627;42.646;23.642;2022-09-30T12:56:10;1.90;;;1.15;;
56752;SDS011;42627;42.646;23.642;2022-09-30T12:58:32;2.13;;;1.00;;
56752;SDS011;42627;42.646;23.642;2022-09-30T13:00:59;4.28;;;1.65;;
56752;SDS011;42627;42.646;23.642;2022-09-30T13:07:32;1.98;;;1.10;;
56752;SDS011;42627;42.646;23.642;2022-09-30T13:09:34;2.90;;;1.27;;
56752;SDS011;42627;42.646;23.642;2022-09-30T13:11:39;2.20;;;1.20;;
56752;SDS011;42627;42.646;23.642;2022-09-30T13:15:42;3.60;;;1.23;;
56752;SDS011;42627;42.646;23.642;2022-09-30T13:17:44;2.90;;;1.30;;
56752;SDS011;42627;42.646;23.642;2022-09-30T13:19:50;5.68;;;2.03;;
56752;SDS011;42627;42.646;23.642;2022-09-30T13:21:59;3.25;;;1.73;;
56752;SDS011;42627;42.646;23.642;2022-09-30T13:24:12;2.28;;;1.20;;
56752;SDS011;42627;42.646;23.642;2022-09-30T13:35:48;2.47;;;1.42;;
56752;SDS011;42627;42.646;23.642;2022-09-30T13:40:28;1.90;;;1.38;;
56752;SDS011;42627;42.646;23.642;2022-09-30T13:42:33;3.30;;;1.60;;
56752;SDS011;42627;42.646;23.642;2022-09-30T13:46:50;2.45;;;1.30;;
56752;SDS011;42627;42.646;23.642;2022-09-30T13:49:04;3.72;;;1.58;;
56752;SDS011;42627;42.646;23.642;2022-09-30T13:51:11;2.47;;;1.48;;
56752;SDS011;42627;42.646;23.642;2022-09-30T13:53:18;2.38;;;1.27;;
56752;SDS011;42627;42.646;23.642;2022-09-30T13:55:24;5.10;;;1.83;;
56752;SDS011;42627;42.646;23.642;2022-09-30T13:57:30;1.70;;;1.05;;
56752;SDS011;42627;42.646;23.642;2022-09-30T14:05:53;3.17;;;1.13;;
56752;SDS011;42627;42.646;23.642;2022-09-30T14:21:18;1.25;;;1.02;;
56752;SDS011;42627;42.646;23.642;2022-09-30T14:23:36;2.28;;;1.15;;
56752;SDS011;42627;42.646;23.642;2022-09-30T14:25:38;2.33;;;1.10;;
56752;SDS011;42627;42.646;23.642;2022-09-30T14:28:14;3.58;;;1.95;;
56752;SDS011;42627;42.646;23.642;2022-09-30T14:30:50;2.17;;;1.35;;
56752;SDS011;42627;42.646;23.642;2022-09-30T15:34:15;1.98;;;1.20;;
56752;SDS011;42627;42.646;23.642;2022-09-30T16:34:24;6.30;;;2.72;;
56752;SDS011;42627;42.646;23.642;2022-09-30T16:38:55;5.45;;;2.60;;
56752;SDS011;42627;42.646;23.642;2022-09-30T16:49:33;5.85;;;2.08;;
56752;SDS011;42627;42.646;23.642;2022-09-30T16:51:34;5.53;;;2.17;;
56752;SDS011;42627;42.646;23.642;2022-09-30T16:53:35;6.25;;;2.30;;
56752;SDS011;42627;42.646;23.642;2022-09-30T16:55:36;5.05;;;2.30;;
56752;SDS011;42627;42.646;23.642;2022-09-30T16:57:40;8.25;;;3.40;;
56752;SDS011;42627;42.646;23.642;2022-09-30T16:59:41;5.68;;;2.53;;
56752;SDS011;42627;42.646;23.642;2022-09-30T17:01:42;4.78;;;2.10;;
56752;SDS011;42627;42.646;23.642;2022-09-30T17:03:54;3.90;;;2.10;;
56752;SDS011;42627;42.646;23.642;2022-09-30T17:07:59;3.60;;;1.90;;
56752;SDS011;42627;42.646;23.642;2022-09-30T17:10:00;5.65;;;2.28;;
56752;SDS011;42627;42.646;23.642;2022-09-30T17:12:05;3.15;;;1.85;;
56752;SDS011;42627;42.646;23.642;2022-09-30T17:14:06;5.57;;;2.10;;
56752;SDS011;42627;42.646;23.642;2022-09-30T17:16:07;3.58;;;1.83;;
56752;SDS011;42627;42.646;23.642;2022-09-30T17:18:17;6.90;;;3.00;;
56752;SDS011;42627;42.646;23.642;2022-09-30T17:20:27;17.77;;;6.63;;
56752;SDS011;42627;42.646;23.642;2022-09-30T17:22:28;19.20;;;7.25;;
56752;SDS011;42627;42.646;23.642;2022-09-30T17:24:29;11.93;;;4.78;;
56752;SDS011;42627;42.646;23.642;2022-09-30T17:26:56;10.52;;;4.22;;
56752;SDS011;42627;42.646;23.642;2022-09-30T17:31:31;3.50;;;1.98;;
56752;SDS011;42627;42.646;23.642;2022-09-30T17:33:32;4.28;;;1.80;;
56752;SDS011;42627;42.646;23.642;2022-09-30T17:35:42;4.65;;;1.95;;
56752;SDS011;42627;42.646;23.642;2022-09-30T17:37:55;2.97;;;1.77;;
56752;SDS011;42627;42.646;23.642;2022-09-30T17:39:57;5.30;;;2.60;;
56752;SDS011;42627;42.646;23.642;2022-09-30T17:41:59;4.70;;;2.58;;
56752;SDS011;42627;42.646;23.642;2022-09-30T17:44:20;3.90;;;2.17;;
56752;SDS011;42627;42.646;23.642;2022-09-30T17:46:22;4.35;;;2.00;;
56752;SDS011;42627;42.646;23.642;2022-09-30T17:48:24;3.67;;;2.03;;
56752;SDS011;42627;42.646;23.642;2022-09-30T17:50:27;3.50;;;1.98;;
56752;SDS011;42627;42.646;23.642;2022-09-30T17:52:30;4.60;;;2.25;;
56752;SDS011;42627;42.646;23.642;2022-09-30T17:54:33;3.80;;;1.73;;
56752;SDS011;42627;42.646;23.642;2022-09-30T17:56:34;5.10;;;2.13;;
56752;SDS011;42627;42.646;23.642;2022-09-30T17:58:37;3.42;;;1.83;;
56752;SDS011;42627;42.646;23.642;2022-09-30T18:00:39;3.40;;;1.58;;
56752;SDS011;42627;42.646;23.642;2022-09-30T18:02:41;2.78;;;1.52;;
56752;SDS011;42627;42.646;23.642;2022-09-30T18:04:43;2.80;;;1.30;;
56752;SDS011;42627;42.646;23.642;2022-09-30T18:06:45;3.15;;;1.73;;
56752;SDS011;42627;42.646;23.642;2022-09-30T18:08:49;3.25;;;1.75;;
56752;SDS011;42627;42.646;23.642;2022-09-30T18:10:53;3.55;;;1.40;;
56752;SDS011;42627;42.646;23.642;2022-09-30T18:12:56;3.22;;;2.00;;
56752;SDS011;42627;42.646;23.642;2022-09-30T18:14:58;2.38;;;1.50;;
56752;SDS011;42627;42.646;23.642;2022-09-30T18:22:08;3.63;;;1.63;;
56752;SDS011;42627;42.646;23.642;2022-09-30T18:24:09;5.10;;;2.38;;
56752;SDS011;42627;42.646;23.642;2022-09-30T18:26:09;4.32;;;1.67;;
56752;SDS011;42627;42.646;23.642;2022-09-30T18:28:11;4.43;;;2.22;;
56752;SDS011;42627;42.646;23.642;2022-09-30T18:30:12;4.72;;;1.88;;
56752;SDS011;42627;42.646;23.642;2022-09-30T18:32:12;4.00;;;1.73;;
56752;SDS011;42627;42.646;23.642;2022-09-30T18:34:16;4.35;;;1.50;;
56752;SDS011;42627;42.646;23.642;2022-09-30T18:36:35;3.33;;;1.83;;
56752;SDS011;42627;42.646;23.642;2022-09-30T18:38:36;2.72;;;1.40;;
56752;SDS011;42627;42.646;23.642;2022-09-30T18:40:39;2.70;;;1.50;;
56752;SDS011;42627;42.646;23.642;2022-09-30T18:42:42;2.38;;;1.33;;
56752;SDS011;42627;42.646;23.642;2022-09-30T18:44:43;5.03;;;2.28;;